Latest Weather Observations for Smithton

IDT60801

Issued at 4:51 pm EDT Tuesday 19 January 2021 (issued every 10 minutes, with the page automatically refreshed every 10 minutes)

About weather observations | Map of weather stations | Latest weather observations for TAS | Other Formats
Station Details ID: 091292 Name: SMITHTON AERODROME Lat: -40.83 Lon: 145.08 Height: 7.5 m
Data from the previous 72 hours. | See also: Recent months at Smithton
Date/Time
EDT
Temp
°C
App
Temp
°C
Dew
Point
°C
Rel
Hum
%
Delta-T
°C
Wind Press
QNH
hPa
Press
MSL
hPa
Rain since
9am
mm
Dir  Spd
km/h
Gust
km/h
Spd
kts
Gust
kts
19/04:30pm 19.0 12.5 6.5 44 6.2 S 30 48 16 26 1022.3 1022.3 0.0
19/04:29pm 19.0 12.4 6.2 43 6.3 S 30 48 16 26 1022.3 1022.3 0.0
19/04:00pm 18.0 9.9 3.5 38 6.7 SSW 35 48 19 26 1022.5 1022.5 0.0
19/03:30pm 18.2 10.6 5.8 44 6.1 SSW 35 48 19 26 1022.6 1022.6 0.0
19/03:00pm 18.2 10.3 4.4 40 6.5 SSW 35 48 19 26 1022.5 1022.5 0.0
19/02:30pm 17.9 9.7 4.5 41 6.4 SSW 37 52 20 28 1022.4 1022.4 0.0
19/02:00pm 18.0 10.6 4.9 42 6.3 SSW 33 52 18 28 1022.7 1022.7 0.0
19/01:30pm 17.3 9.7 5.6 46 5.7 SSW 35 48 19 26 1023.0 1023.0 0.0
19/01:00pm 17.0 9.2 6.5 50 5.1 SSW 37 48 20 26 1023.2 1023.2 0.0
19/12:30pm 16.9 9.2 5.5 47 5.5 S 35 50 19 27 1023.0 1023.0 0.0
19/12:00pm 16.2 8.5 5.2 48 5.2 SSW 35 52 19 28 1023.2 1023.2 0.0
19/11:55am 16.5 9.3 5.8 49 5.2 SSW 33 52 18 28 1023.3 1023.3 0.0
19/11:42am 16.4 8.9 4.4 45 5.6 SSW 33 44 18 24 1023.4 1023.4 0.0
19/11:30am 16.0 9.3 5.6 50 5.0 SSW 30 44 16 24 1023.4 1023.4 0.0
19/11:00am 15.8 8.6 4.8 48 5.2 S 32 41 17 22 1023.6 1023.6 0.0
19/10:30am 14.5 7.0 4.2 50 4.7 SSW 33 43 18 23 1023.5 1023.5 0.0
19/10:00am 13.9 6.2 5.3 56 4.0 SSW 35 48 19 26 1023.2 1023.2 0.0
19/09:30am 12.9 7.4 5.8 62 3.3 SW 24 41 13 22 1023.2 1023.2 0.0
19/09:00am 13.3 8.9 6.6 64 3.2 SW 19 24 10 13 1022.9 1022.9 0.2
19/08:30am 12.1 7.3 5.5 64 3.1 SW 20 28 11 15 1022.5 1022.5 0.2
19/08:00am 12.2 7.6 5.4 63 3.1 SW 19 26 10 14 1022.1 1022.1 0.2
19/07:30am 10.2 5.8 4.6 68 2.5 WSW 17 20 9 11 1021.7 1021.7 0.2
19/07:00am 9.2 4.3 4.2 71 2.2 SW 19 22 10 12 1021.1 1021.1 0.2
19/06:30am 7.5 2.9 3.7 77 1.6 WSW 17 20 9 11 1020.6 1020.6 0.2
19/06:00am 7.6 3.4 3.8 77 1.6 WSW 15 17 8 9 1020.1 1020.1 0.2
19/05:30am 9.2 5.5 4.2 71 2.2 SW 13 19 7 10 1019.5 1019.5 0.2
19/05:00am 8.1 3.8 3.4 72 2.0 WSW 15 17 8 9 1018.8 1018.8 0.2
19/04:30am 8.9 4.2 3.3 68 2.4 SW 17 22 9 12 1018.5 1018.5 0.2
19/04:00am 8.9 4.3 3.7 70 2.2 SW 17 20 9 11 1018.2 1018.2 0.2
19/03:30am 9.5 4.4 4.1 69 2.4 SW 20 30 11 16 1018.0 1018.0 0.2
19/03:00am 9.0 4.4 3.8 70 2.3 SW 17 24 9 13 1017.8 1017.8 0.2
19/02:30am 9.7 4.6 4.3 69 2.4 SSW 20 30 11 16 1017.6 1017.6 0.2
19/02:00am 10.0 4.7 5.0 71 2.2 SW 22 32 12 17 1017.3 1017.3 0.2
19/01:30am 10.6 5.5 4.1 64 2.9 SW 20 32 11 17 1016.8 1016.8 0.2
19/01:00am 10.9 4.4 4.8 66 2.8 SSW 28 41 15 22 1016.6 1016.6 0.2
19/12:30am 10.8 3.5 4.7 66 2.8 SW 32 48 17 26 1016.0 1016.0 0.2
19/12:00am 11.1 3.9 4.8 65 2.9 SW 32 43 17 23 1015.6 1015.6 0.2
 
Date/Time
EDT
Temp
°C
App
Temp
°C
Dew
Point
°C
Rel
Hum
%
Delta-T
°C
Wind Press
QNH
hPa
Press
MSL
hPa
Rain since
9am
mm
Dir  Spd
km/h
Gust
km/h
Spd
kts
Gust
kts
18/11:30pm 11.2 3.4 4.9 65 2.9 SW 35 48 19 26 1015.2 1015.2 0.2
18/11:00pm 11.3 3.7 5.6 68 2.6 SSW 35 50 19 27 1015.0 1015.0 0.2
18/10:31pm 11.7 4.2 6.4 70 2.5 SSW 35 54 19 29 1014.9 1014.9 0.2
18/10:30pm 11.6 3.8 6.5 71 2.4 SSW 37 54 20 29 1014.9 1014.9 0.2
18/10:00pm 12.3 4.6 7.0 70 2.5 SSW 37 57 20 31 1014.4 1014.4 0.2
18/09:54pm 12.2 5.2 6.7 69 2.6 SW 33 56 18 30 1014.4 1014.4 0.2
18/09:30pm 12.1 4.2 6.4 68 2.7 SW 37 48 20 26 1013.9 1013.9 0.2
18/09:04pm 12.4 4.1 6.0 65 3.0 SW 39 57 21 31 1013.6 1013.6 0.2
18/09:00pm 12.5 4.6 6.1 65 3.0 SW 37 50 20 27 1013.6 1013.6 0.2
18/08:34pm 13.1 5.3 6.7 65 3.1 SW 37 56 20 30 1013.2 1013.2 0.2
18/08:30pm 13.3 4.8 6.9 65 3.1 SW 41 56 22 30 1013.2 1013.2 0.2
18/08:00pm 14.3 4.5 7.1 62 3.5 SW 48 69 26 37 1012.7 1012.7 0.2
18/07:32pm 15.2 5.6 8.0 62 3.6 SW 48 69 26 37 1012.3 1012.3 0.2
18/07:30pm 15.3 5.8 8.3 63 3.5 SW 48 65 26 35 1012.3 1012.3 0.2
18/07:00pm 15.9 8.2 10.0 68 3.1 SW 41 61 22 33 1012.1 1012.1 0.2
18/06:30pm 16.7 8.4 9.9 64 3.6 SW 44 70 24 38 1011.6 1011.6 0.2
18/06:00pm 15.9 8.9 11.1 73 2.6 SW 39 57 21 31 1011.6 1011.6 0.2
18/05:30pm 16.5 8.9 11.9 74 2.5 SW 43 65 23 35 1011.5 1011.5 0.2
18/05:04pm 15.7 8.7 12.5 81 1.8 SW 41 59 22 32 1011.7 1011.7 0.2
18/05:00pm 15.6 8.9 12.4 81 1.8 SW 39 54 21 29 1011.7 1011.7 0.2
18/04:30pm 15.7 9.3 12.1 79 2.0 SW 37 56 20 30 1011.7 1011.7 0.2
18/04:28pm 15.5 9.2 12.3 81 1.7 WSW 37 56 20 30 1011.7 1011.7 0.2
18/04:00pm 16.0 10.8 12.7 81 1.8 SW 32 46 17 25 1011.8 1011.8 0.2
18/03:30pm 16.3 9.3 11.2 72 2.7 SW 39 59 21 32 1011.8 1011.8 0.2
18/03:00pm 17.3 10.5 12.0 71 2.9 SW 39 69 21 37 1011.8 1011.8 0.2
18/02:39pm 16.1 9.5 11.5 74 2.5 SW 37 61 20 33 1011.9 1011.9 0.2
18/02:30pm 17.2 11.7 13.5 79 2.1 SW 35 50 19 27 1011.9 1011.9 0.2
18/02:09pm 15.7 9.3 11.9 78 2.1 SW 37 56 20 30 1012.2 1012.2 0.2
18/02:00pm 17.5 11.8 13.0 75 2.5 SW 35 48 19 26 1012.1 1012.1 0.2
18/01:37pm 16.5 10.2 13.6 83 1.6 SW 39 57 21 31 1012.4 1012.4 0.2
18/01:30pm 16.3 9.3 12.5 78 2.1 SW 41 54 22 29 1012.3 1012.3 0.2
18/01:03pm 16.8 10.5 12.3 75 2.5 WSW 37 59 20 32 1012.3 1012.3 0.2
18/01:00pm 17.6 11.4 12.5 72 2.8 WSW 37 50 20 27 1012.1 1012.1 0.2
18/12:34pm 17.1 10.3 12.0 72 2.8 WSW 39 57 21 31 1012.1 1012.1 0.2
18/12:30pm 17.1 10.7 12.0 72 2.8 WSW 37 50 20 27 1012.0 1012.0 0.2
18/12:04pm 15.3 8.8 13.0 86 1.3 WSW 39 57 21 31 1012.3 1012.3 0.2
18/12:00pm 16.4 10.6 12.8 79 2.0 WSW 35 48 19 26 1012.3 1012.3 0.2
18/11:38am 14.5 9.0 11.8 84 1.5 WSW 32 50 17 27 1012.4 1012.4 0.2
18/11:30am 16.5 11.1 12.8 79 2.1 SW 33 46 18 25 1012.4 1012.4 0.2
18/11:02am 15.4 9.8 11.6 78 2.0 WSW 32 50 17 27 1012.5 1012.5 0.2
18/11:00am 15.9 10.9 12.3 79 2.0 SW 30 43 16 23 1012.6 1012.6 0.2
18/10:32am 14.6 8.8 12.6 88 1.1 SW 35 54 19 29 1012.7 1012.7 0.2
18/10:30am 14.6 8.4 12.8 89 1.0 SW 37 50 20 27 1012.7 1012.7 0.2
18/10:20am 14.6 9.2 12.3 86 1.3 WSW 32 50 17 27 1012.7 1012.7 0.2
18/10:00am 15.3 11.0 13.3 88 1.1 WSW 28 37 15 20 1012.7 1012.7 0.2
18/09:30am 14.9 9.5 12.2 84 1.5 WSW 32 41 17 22 1012.8 1012.8 0.0
18/09:00am 14.9 11.2 12.8 87 1.2 WSW 24 30 13 16 1012.9 1012.9 2.2
18/08:30am 13.9 9.2 12.1 89 1.0 SW 28 43 15 23 1013.0 1013.0 2.2
18/08:00am 13.7 9.5 12.3 91 0.8 WSW 26 33 14 18 1012.9 1012.9 2.2
18/07:30am 13.3 9.0 12.2 93 0.6 WSW 26 33 14 18 1012.8 1012.8 2.2
18/07:16am 13.2 8.5 12.1 93 0.6 WSW 28 43 15 23 1012.8 1012.8 2.2
18/07:00am 13.5 10.7 12.6 94 0.5 WSW 19 24 10 13 1012.5 1012.5 2.2
18/06:30am 13.3 10.3 12.5 95 0.4 WSW 20 28 11 15 1012.4 1012.4 2.2
18/06:00am 13.4 9.7 12.6 95 0.4 SW 24 35 13 19 1012.1 1012.1 2.0
18/05:30am 13.6 9.9 12.8 95 0.4 WSW 24 33 13 18 1012.0 1012.0 2.0
18/05:00am 13.5 10.6 13.0 97 0.3 WSW 20 28 11 15 1011.8 1011.8 2.0
18/04:30am 13.3 10.5 12.7 96 0.3 W 19 28 10 15 1011.7 1011.7 1.8
18/04:00am 13.1 10.0 12.3 95 0.4 WSW 20 26 11 14 1011.8 1011.8 1.8
18/03:30am 13.2 9.4 12.4 95 0.4 WSW 24 32 13 17 1012.0 1012.0 1.8
18/03:00am 13.2 9.8 12.4 95 0.4 WSW 22 33 12 18 1012.1 1012.1 1.8
18/02:30am 13.3 10.3 12.7 96 0.3 WSW 20 28 11 15 1012.3 1012.3 1.6
18/02:00am 13.3 8.7 12.4 94 0.5 WSW 28 41 15 22 1012.4 1012.4 1.6
18/01:54am 13.3 8.7 12.4 94 0.5 WSW 28 41 15 22 1012.4 1012.4 1.6
18/01:30am 13.3 10.5 12.7 96 0.3 WSW 19 22 10 12 1012.5 1012.5 1.6
18/01:00am 13.4 9.7 12.6 95 0.4 WSW 24 32 13 17 1012.6 1012.6 1.4
18/12:30am 13.5 9.8 12.6 94 0.5 WSW 24 30 13 16 1012.7 1012.7 1.4
18/12:00am 13.5 9.5 12.9 96 0.3 WSW 26 35 14 19 1012.8 1012.8 1.2
 
Date/Time
EDT
Temp
°C
App
Temp
°C
Dew
Point
°C
Rel
Hum
%
Delta-T
°C
Wind Press
QNH
hPa
Press
MSL
hPa
Rain since
9am
mm
Dir  Spd
km/h
Gust
km/h
Spd
kts
Gust
kts
17/11:30pm 13.5 10.2 12.9 96 0.3 WSW 22 30 12 16 1013.0 1013.0 1.0
17/11:00pm 13.5 10.2 12.7 95 0.4 WSW 22 28 12 15 1013.2 1013.2 0.4
17/10:30pm 13.7 10.0 12.8 94 0.5 W 24 33 13 18 1013.4 1013.4 0.4
17/10:00pm 13.8 8.9 12.4 91 0.8 WSW 30 43 16 23 1013.5 1013.5 0.2
17/09:30pm 14.3 9.3 12.2 87 1.1 WSW 30 48 16 26 1013.4 1013.4 0.2
17/09:29pm 14.3 9.3 12.2 87 1.1 WSW 30 48 16 26 1013.4 1013.4 0.2
17/09:00pm 14.1 9.1 12.3 89 1.0 WSW 30 44 16 24 1013.3 1013.3 0.2
17/08:30pm 14.0 9.6 12.9 93 0.6 WSW 28 43 15 23 1013.4 1013.4 0.2
17/08:00pm 14.0 9.5 12.7 92 0.7 WSW 28 35 15 19 1013.1 1013.1 0.2
17/07:30pm 14.1 9.7 12.8 92 0.7 W 28 43 15 23 1013.1 1013.1 0.2
17/07:00pm 14.1 9.7 13.0 93 0.6 WSW 28 41 15 22 1013.2 1013.2 0.0
17/06:30pm 14.0 9.6 12.9 93 0.6 W 28 43 15 23 1013.3 1013.3 0.0
17/06:00pm 14.0 9.5 12.6 91 0.8 WSW 28 39 15 21 1013.4 1013.4 0.0
17/05:30pm 14.5 8.9 11.5 82 1.6 W 32 46 17 25 1013.4 1013.4 0.0
17/05:00pm 14.9 9.2 11.1 78 2.0 W 32 46 17 25 1013.6 1013.6 0.0
17/04:41pm 14.8 9.0 11.4 80 1.8 W 33 52 18 28 1013.8 1013.8 0.0
17/04:30pm 14.9 8.6 10.9 77 2.1 WSW 35 50 19 27 1013.9 1013.9 0.0
17/04:21pm 14.9 9.0 10.5 75 2.3 W 32 50 17 27 1014.0 1014.0 0.0
17/04:00pm 14.9 8.8 10.3 74 2.4 W 33 50 18 27 1014.2 1014.2 0.0
17/03:30pm 14.7 7.7 10.1 74 2.4 W 37 50 20 27 1014.4 1014.4 0.0
17/03:00pm 15.1 8.3 9.2 68 3.0 W 35 50 19 27 1014.5 1014.5 0.0
17/02:30pm 15.6 8.8 9.1 65 3.3 WSW 35 46 19 25 1014.4 1014.4 0.0
17/02:00pm 16.5 9.6 9.0 61 3.9 WSW 35 50 19 27 1014.6 1014.6 0.0
17/01:30pm 15.2 7.7 9.3 68 3.0 W 39 52 21 28 1014.7 1014.7 0.0
17/01:14pm 15.5 8.5 8.5 63 3.5 WSW 35 56 19 30 1014.8 1014.8 0.0
17/01:00pm 16.5 9.6 8.7 60 4.0 WSW 35 52 19 28 1014.7 1014.7 0.0
17/12:35pm 16.3 10.5 9.3 63 3.6 WSW 30 48 16 26 1014.8 1014.8 0.0
17/12:30pm 16.1 10.5 8.6 61 3.8 WSW 28 44 15 24 1014.8 1014.8 0.0
17/12:00pm 16.5 9.8 7.4 55 4.5 WSW 32 46 17 25 1015.3 1015.3 0.0
17/11:39am 16.0 9.9 8.2 60 3.9 WSW 30 50 16 27 1015.4 1015.4 0.0
17/11:30am 15.9 10.2 8.2 60 3.9 WSW 28 37 15 20 1015.4 1015.4 0.0
17/11:00am 15.8 8.3 6.5 54 4.5 WSW 35 46 19 25 1015.2 1015.2 0.0
17/10:30am 16.4 10.5 8.9 61 3.9 WSW 30 41 16 22 1014.7 1014.7 0.0
17/10:00am 15.9 9.6 9.1 64 3.5 WSW 32 44 17 24 1015.0 1015.0 0.0
17/09:30am 14.1 9.1 8.1 67 3.0 WSW 24 33 13 18 1015.3 1015.3 0.0
17/09:00am 13.8 9.1 7.6 66 3.0 WSW 22 32 12 17 1015.2 1015.2 0.6
17/08:30am 13.9 10.0 7.0 63 3.4 WSW 17 24 9 13 1015.0 1015.0 0.6
17/08:00am 12.7 8.2 6.1 64 3.1 WSW 19 26 10 14 1014.9 1014.9 0.6
17/07:30am 11.9 7.5 6.4 69 2.6 WSW 19 24 10 13 1014.6 1014.6 0.6
17/07:00am 9.8 5.6 5.6 75 1.9 W 17 20 9 11 1014.4 1014.4 0.6
17/06:30am 9.8 5.0 4.8 71 2.2 W 19 24 10 13 1014.2 1014.2 0.6
17/06:00am 10.0 5.6 5.0 71 2.3 W 17 20 9 11 1013.6 1013.6 0.6
17/05:30am 9.9 5.6 5.3 73 2.1 WSW 17 20 9 11 1013.7 1013.7 0.6
17/05:00am 10.5 6.2 5.3 70 2.4 W 17 24 9 13 1013.2 1013.2 0.6
17/04:30am 11.2 6.9 5.3 67 2.7 W 17 24 9 13 1013.0 1013.0 0.6
17/04:00am 11.2 6.0 5.5 68 2.6 WSW 22 30 12 16 1012.9 1012.9 0.6
17/03:30am 11.5 7.0 6.8 73 2.2 WSW 20 30 11 16 1012.9 1012.9 0.6
17/03:00am 11.1 7.5 6.6 74 2.1 WSW 15 17 8 9 1013.0 1013.0 0.6
17/02:30am 10.8 7.5 6.2 73 2.1 WSW 13 19 7 10 1013.1 1013.1 0.6
17/02:00am 10.9 6.6 5.4 69 2.5 WSW 17 20 9 11 1012.8 1012.8 0.6
17/01:30am 10.7 6.5 5.7 71 2.3 WSW 17 24 9 13 1012.5 1012.5 0.6
17/01:00am 10.6 6.9 6.2 74 2.0 WSW 15 24 8 13 1012.5 1012.5 0.6
17/12:30am 11.3 6.7 5.8 69 2.6 SW 19 30 10 16 1012.4 1012.4 0.6
17/12:00am 11.1 6.5 5.4 68 2.6 WSW 19 24 10 13 1012.1 1012.1 0.6
 
Date/Time
EDT
Temp
°C
App
Temp
°C
Dew
Point
°C
Rel
Hum
%
Delta-T
°C
Wind Press
QNH
hPa
Press
MSL
hPa
Rain since
9am
mm
Dir  Spd
km/h
Gust
km/h
Spd
kts
Gust
kts
16/11:30pm 10.5 5.2 5.1 69 2.5 WSW 22 30 12 16 1012.1 1012.1 0.6
16/11:00pm 11.1 4.8 5.6 69 2.5 SW 28 39 15 21 1012.1 1012.1 0.6
16/10:30pm 11.3 5.2 6.4 72 2.3 SW 28 35 15 19 1011.8 1011.8 0.6
16/10:00pm 12.1 5.2 6.6 69 2.6 SW 32 43 17 23 1011.6 1011.6 0.6
16/09:30pm 12.3 5.3 6.1 66 2.9 SW 32 44 17 24 1011.2 1011.2 0.6
16/09:00pm 12.1 6.0 6.8 70 2.5 SW 28 46 15 25 1010.9 1010.9 0.6
16/08:37pm 12.3 5.2 6.6 68 2.7 SW 33 52 18 28 1010.6 1010.6 0.6
16/08:30pm 12.4 4.6 6.5 67 2.8 SW 37 52 20 28 1010.4 1010.4 0.6
16/08:00pm 13.1 5.1 7.3 68 2.8 SW 39 56 21 30 1009.9 1009.9 0.6
16/07:30pm 13.3 5.2 6.9 65 3.1 SW 39 61 21 33 1009.5 1009.5 0.6
16/07:06pm 14.5 4.9 6.3 58 3.9 SW 46 65 25 35 1009.0 1009.0 0.6
16/07:00pm 14.3 5.2 6.9 61 3.6 SW 44 56 24 30 1009.0 1009.0 0.6
16/06:31pm 14.7 4.8 4.7 51 4.7 SW 46 70 25 38 1008.4 1008.4 0.6
16/06:30pm 14.8 5.3 4.8 51 4.7 SW 44 61 24 33 1008.3 1008.3 0.6
16/06:00pm 15.3 4.7 5.0 50 4.9 SW 50 69 27 37 1008.1 1008.1 0.6
16/05:30pm 16.8 7.8 7.4 54 4.7 SW 44 70 24 38 1007.9 1007.9 0.6
16/05:11pm 15.3 5.3 6.3 55 4.4 SW 48 67 26 36 1007.8 1007.8 0.6
16/05:00pm 16.0 6.2 7.0 55 4.5 SW 48 65 26 35 1007.7 1007.7 0.6

Other formats

Comma delimited format used in spreadsheet applications
http://www.bom.gov.au/fwo/IDT60801/IDT60801.94953.axf

JavaScript Object Notation format (JSON) in row-major order
http://www.bom.gov.au/fwo/IDT60801/IDT60801.94953.json

Data quality

Most of these data are generated automatically and are frequently updated. Quality checks on data are not normally performed. It is possible for incorrect values to appear. Refer to information at About Latest Weather Observations and please check the disclaimer before using these data.